Stella Ada — 9V9082 — position and weather

sailwx.info

Track history (hours):
 
Tides and Currents Weather Stations Pressure Air Temp Water Temp Dewpoint Dewpoint Depression Visibility Wind Speed Wind Dir Waves Ship Positions

Stella Ada

Last reported at 2016-Aug-23 15:17 UTC. Time now 2016-Aug-28 02:14 UTC.
Position N 38°55' E 119°18'.

Length 296 m; draft 18.1 m.

Type: Cargo ship. MMSI: 566089000.

Date/timePositionNaut miles runAvg speedWind from/ knotsBaromVisibWave heightAir tempDewpointWater temp
2016-Aug-23 15:17N 38°55' E 119°18'6 8.3
2016-Aug-23 14:33N 38°52' E 119°25'1010.0
2016-Aug-23 13:33N 38°51' E 119°38'1010.1
2016-Aug-23 12:33N 38°48' E 119°50'1110.7
2016-Aug-23 11:33N 38°46' E 120°03'1111.1
2016-Aug-23 10:33N 38°43' E 120°17'1212.2
2016-Aug-23 09:33N 38°41' E 120°32'1312.9
2016-Aug-23 08:33N 38°38' E 120°49'1313.0
2016-Aug-23 07:33N 38°32' E 121°03'1212.1
2016-Aug-23 06:33N 38°26' E 121°17'1211.8
2016-Aug-23 05:33N 38°20' E 121°30'1211.3
2016-Aug-23 04:30N 38°15' E 121°43'1110.9
2016-Aug-23 03:32N 38°10' E 121°55'1110.8
2016-Aug-23 02:32N 38°05' E 122°08'1211.7
2016-Aug-23 01:32N 37°58' E 122°19'1111.7
2016-Aug-23 00:33N 37°52' E 122°31'1111.4
2016-Aug-22 23:33N 37°46' E 122°44'1110.9
2016-Aug-22 22:33N 37°40' E 122°55'18 9.2
2016-Aug-22 20:33N 37°23' E 123°03'9 9.2
2016-Aug-22 19:33N 37°14' E 123°03'9 9.0
2016-Aug-22 18:33N 37°05' E 123°04'9 9.2
2016-Aug-22 17:31N 36°55' E 123°07'9 9.7
2016-Aug-22 16:33N 36°46' E 123°07'  
Track history (hours):
 
Tides and Currents Weather Stations Pressure Air Temp Water Temp Dewpoint Dewpoint Depression Visibility Wind Speed Wind Dir Waves Ship Positions

Stella Ada

Last reported at 2016-Aug-23 15:17 UTC. Time now 2016-Aug-28 02:14 UTC.
Position N 38°55' E 119°18'.

Length 296 m; draft 18.1 m.

Type: Cargo ship. MMSI: 566089000.

Date/timePositionNaut miles runAvg speedWind from/ knotsBaromVisibWave heightAir tempDewpointWater temp
2016-Aug-23 15:17N 38°55' E 119°18'6 8.3
2016-Aug-23 14:33N 38°52' E 119°25'1010.0
2016-Aug-23 13:33N 38°51' E 119°38'1010.1
2016-Aug-23 12:33N 38°48' E 119°50'1110.7
2016-Aug-23 11:33N 38°46' E 120°03'1111.1
2016-Aug-23 10:33N 38°43' E 120°17'1212.2
2016-Aug-23 09:33N 38°41' E 120°32'1312.9
2016-Aug-23 08:33N 38°38' E 120°49'1313.0
2016-Aug-23 07:33N 38°32' E 121°03'1212.1
2016-Aug-23 06:33N 38°26' E 121°17'1211.8
2016-Aug-23 05:33N 38°20' E 121°30'1211.3
2016-Aug-23 04:30N 38°15' E 121°43'1110.9
2016-Aug-23 03:32N 38°10' E 121°55'1110.8
2016-Aug-23 02:32N 38°05' E 122°08'1211.7
2016-Aug-23 01:32N 37°58' E 122°19'1111.7
2016-Aug-23 00:33N 37°52' E 122°31'1111.4
2016-Aug-22 23:33N 37°46' E 122°44'1110.9
2016-Aug-22 22:33N 37°40' E 122°55'18 9.2
2016-Aug-22 20:33N 37°23' E 123°03'9 9.2
2016-Aug-22 19:33N 37°14' E 123°03'9 9.0
2016-Aug-22 18:33N 37°05' E 123°04'9 9.2
2016-Aug-22 17:31N 36°55' E 123°07'9 9.7
2016-Aug-22 16:33N 36°46' E 123°07'  

Dump ship's entire track history